Tiempo atmosférico en la estación meteorológica de Castell Del Ferro, Granada (235 m.)



Fecha
DESCASC
Temp. máxima en grados centígrados (hora)
DESCASC
Temp. mínima en grados centígrados (hora)
DESCASC
Temp. media en grados centígrados
DESCASC
Racha de viento máxima en m/sg (hora)
DESCASC
Velocidad máxima media en intervalos de 10 minutos(hora)
DESCASC
Precipitaciones diarias en mm
DESCASC
Precipitaciones de 00:00 a 06:00 en mm
DESCASC
Precipitaciones de 06:00 a 12:00 en mm
DESCASC
Precipitaciones de 12:00 a 18:00 en mm
DESCASC
Precipitaciones de 18:00 a 24:00 en mm
DESCASC

Gráficas

Temp. máximas Temp. mínimas Temp. medias Precipitaciones Rachas de viento máximas Velocidades máximas media en intervalos de 10 minutos

Datos horarios

Fecha y hora oficial Temperatura (ºC) Velocidad del viento (km/h) Dirección del viento Racha (km/h) Dirección de racha Precipitación (mm) Presión (hPa) Tendencia (hPa) Humedad (%)
2018-02-20 23:00:00 11.4 6 Oeste 9 Oeste 0 -- -- 84
2018-02-20 22:00:00 12 7 Sur 11 Sudeste 0 -- -- 90
2018-02-20 21:00:00 12 5 Sudeste 9 Sur 0 -- -- 84
2018-02-20 20:00:00 12.5 3 Sur 13 Oeste 0 -- -- 80
2018-02-20 19:00:00 12.9 4 Oeste 10 Sudoeste 0 -- -- 79
2018-02-20 18:00:00 14.4 9 Oeste 26 Oeste 0 -- -- 72
2018-02-20 17:00:00 16.8 11 Oeste 30 Sudoeste 0 -- -- 64
2018-02-20 16:00:00 17.5 5 Noroeste 26 Oeste 0 -- -- 58
2018-02-20 15:00:00 17.7 11 Oeste 24 Sudoeste 0 -- -- 62
2018-02-20 14:00:00 18.5 7 Este 15 Este 0 -- -- 57
2018-02-20 13:00:00 17 5 Nordeste 12 Este 0 -- -- 60
2018-02-20 12:00:00 16.6 5 Este 11 Este 0 -- -- 63
2018-02-20 11:00:00 15.9 2 Este 7 Este 0 -- -- 68
2018-02-20 10:00:00 14.4 0 Calma 4 Nordeste 0 -- -- 68
2018-02-20 09:00:00 11.4 0 Calma 4 Sur 0 -- -- 81
2018-02-20 08:00:00 9.1 2 Sudeste 4 Este 0 -- -- 84
2018-02-20 07:00:00 9.4 0 Calma 5 Oeste 0 -- -- 87
2018-02-20 06:00:00 9.3 3 Oeste 4 Sudoeste 0 -- -- 89
2018-02-20 05:00:00 9.2 2 Oeste 4 Sur 0 -- -- 91
2018-02-20 04:00:00 9.6 2 Sur 5 Oeste 0 -- -- 90
2018-02-20 03:00:00 9.8 3 Oeste 5 Noroeste 0 -- -- 91
2018-02-20 02:00:00 9.6 0 Calma 6 Sudoeste 0 -- -- 92
2018-02-20 01:00:00 9.9 4 Sudoeste 6 Sudoeste 0 -- -- 92
2018-02-20 00:00:00 9.7 2 Sudeste 6 Sudoeste 0 -- -- 92
2018-02-19 23:00:00 9.8 2 Sudoeste 4 Sudoeste 0 -- -- 92
2018-02-19 22:00:00 10.3 0 Calma 6 Sudoeste 0 -- -- 91
2018-02-19 21:00:00 10.8 2 Sudoeste 7 Sudeste 0 -- -- 89
2018-02-19 20:00:00 11.4 0 Calma 5 Sudoeste 0 -- -- 90
2018-02-19 19:00:00 11.7 4 Sur 9 Este 0 -- -- 92
2018-02-19 18:00:00 12.6 3 Este 8 Este 0 -- -- 90
2018-02-19 17:00:00 13.4 3 Sudeste 9 Sudeste 0 -- -- 86
2018-02-19 16:00:00 13.2 6 Sudeste 9 Sudeste 0 -- -- 86
2018-02-19 15:00:00 13 3 Sudeste 8 Este 0 -- -- 88
2018-02-19 14:00:00 12.9 3 Sudeste 8 Este 0 -- -- 86
2018-02-19 13:00:00 12.8 5 Este 9 Este 0 -- -- 86
2018-02-19 12:00:00 13.2 4 Este 8 Sudeste 0 -- -- 85
2018-02-19 11:00:00 12.3 0 Calma 4 Oeste 0 -- -- 92
2018-02-19 10:00:00 11.3 0 Calma 5 Este 0 -- -- 94
2018-02-19 09:00:00 11.3 3 Noroeste 8 Oeste 0.2 -- -- 93
2018-02-19 08:00:00 11 4 Oeste 10 Oeste 1 -- -- 95
2018-02-19 07:00:00 10.9 5 Oeste 8 Oeste 3.4 -- -- 96
2018-02-19 06:00:00 11.2 7 Oeste 10 Oeste 0.8 -- -- 95
2018-02-19 05:00:00 11.3 2 Oeste 6 Oeste 0.2 -- -- 96
2018-02-19 04:00:00 11.4 3 Oeste 9 Sudeste 0.4 -- -- 97
2018-02-19 03:00:00 11.3 8 Sudeste 18 Sudeste 2.8 -- -- 97
2018-02-19 02:00:00 11.7 2 Este 10 Este 0.6 -- -- 96
2018-02-19 01:00:00 12.1 5 Este 13 Sudeste 0 -- -- 97
2018-02-19 00:00:00 12.1 6 Sudeste 15 Sudeste 0 -- -- 96
2018-02-18 23:00:00 12.1 12 Sudeste 17 Sudeste 0 -- -- 97
2018-02-18 22:00:00 12.4 8 Este 18 Este 0.4 -- -- 97
2018-02-18 21:00:00 12.4 12 Este 17 Este 0 -- -- 96
2018-02-18 20:00:00 12.5 10 Sudeste 17 Este 0 -- -- 95
2018-02-18 19:00:00 12.8 9 Este 12 Este 0 -- -- 94
2018-02-18 18:00:00 13 9 Este 17 Este 0 -- -- 93
2018-02-18 17:00:00 13.2 9 Este 16 Este 0 -- -- 89
2018-02-18 16:00:00 13.6 9 Este 23 Sudeste 0 -- -- 88
2018-02-18 15:00:00 14 14 Este 24 Este 0 -- -- 85
2018-02-18 14:00:00 15.1 11 Este 21 Este 0 -- -- 79
2018-02-18 13:00:00 15.6 13 Este 24 Sudeste 0 -- -- 76
2018-02-18 12:00:00 15.5 14 Este 21 Este 0 -- -- 72
2018-02-18 11:00:00 14.9 9 Este 15 Este 0 -- -- 72
2018-02-18 10:00:00 13.2 9 Este 16 Este 0 -- -- 80
2018-02-18 09:00:00 11.9 4 Nordeste 16 Nordeste 0 -- -- 85
2018-02-18 08:00:00 11.6 6 Nordeste 14 Este 0 -- -- 84
2018-02-18 07:00:00 11.1 3 Este 11 Nordeste 0 -- -- 85
2018-02-18 06:00:00 10.9 4 Sudoeste 8 Sudoeste 0 -- -- 91
2018-02-18 05:00:00 11.2 2 Sudoeste 11 Sudeste 0 -- -- 87
2018-02-18 04:00:00 11.3 6 Sudeste 11 Sudeste 0 -- -- 87
2018-02-18 03:00:00 12.1 5 Sur 8 Sudeste 0 -- -- 73
2018-02-18 02:00:00 11.5 0 Calma 6 Oeste 0 -- -- 77
2018-02-18 01:00:00 11.5 3 Sudoeste 8 Sudeste 0 -- -- 84
2018-02-18 00:00:00 11.8 4 Sur 9 Sudeste 0 -- -- 81
2018-02-17 23:00:00 12.6 3 Sur 8 Sur 0 -- -- 76
2018-02-17 22:00:00 12.3 2 Sur 6 Sur 0 -- -- 75
2018-02-17 21:00:00 11.7 3 Sudeste 5 Sudeste 0 -- -- 88
2018-02-17 20:00:00 11.9 0 Calma 6 Noroeste 0 -- -- 85
2018-02-17 19:00:00 13.2 0 Calma 7 Oeste 0 -- -- 81
2018-02-17 18:00:00 14.1 0 Calma 4 Este 0 -- -- 83
2018-02-17 17:00:00 15.8 3 Sudeste 10 Este 0 -- -- 77
2018-02-17 16:00:00 16.2 5 Sudeste 13 Sudeste 0 -- -- 74
2018-02-17 15:00:00 16.2 9 Sudeste 14 Sudeste 0 -- -- 72
2018-02-17 14:00:00 15.9 7 Este 15 Este 0 -- -- 76
2018-02-17 13:00:00 15.9 10 Este 15 Este 0 -- -- 76
2018-02-17 12:00:00 16 7 Este 12 Este 0 -- -- 75
2018-02-17 11:00:00 15.2 6 Este 10 Nordeste 0 -- -- 77
2018-02-17 10:00:00 14.1 3 Este 6 Este 0 -- -- 84
2018-02-17 09:00:00 11.2 0 Calma 5 Sudeste 0 -- -- 96
2018-02-17 08:00:00 9.3 3 Sur 4 Sur 0 -- -- 94
2018-02-17 07:00:00 9.4 2 Sur 5 Sudoeste 0 -- -- 95
2018-02-17 06:00:00 10 3 Sudoeste 5 Sudoeste 0 -- -- 95
2018-02-17 05:00:00 9.8 0 Calma 5 Sur 0 -- -- 92
2018-02-17 04:00:00 9.8 0 Calma 4 Sudoeste 0 -- -- 87
2018-02-17 03:00:00 10.2 0 Calma 8 Sudeste 0 -- -- 90
2018-02-17 02:00:00 10.4 4 Sur 6 Sur 0 -- -- 85
2018-02-17 01:00:00 10.7 0 Calma 4 Sudeste 0 -- -- 86
2018-02-17 00:00:00 10.9 0 Calma 4 Oeste 0 -- -- 83
2018-02-16 23:00:00 11.4 0 Calma 8 Sudoeste 0 -- -- 82
2018-02-16 22:00:00 11.3 0 Calma 8 Sudoeste 0 -- -- 78
2018-02-16 21:00:00 11.6 4 Oeste 7 Sudoeste 0 -- -- 74
2018-02-16 20:00:00 11.4 0 Calma 4 Oeste 0 -- -- 90
2018-02-16 19:00:00 12.1 0 Calma 4 Oeste 0 -- -- 89
2018-02-16 18:00:00 13.8 0 Calma 7 Este 0 -- -- 84
2018-02-16 17:00:00 15.8 5 Este 10 Este 0 -- -- 77
2018-02-16 16:00:00 16.1 6 Este 15 Este 0 -- -- 76
2018-02-16 15:00:00 16 11 Este 18 Este 0 -- -- 73
2018-02-16 14:00:00 15.7 10 Sudeste 16 Este 0 -- -- 72
2018-02-16 13:00:00 15.6 8 Sudeste 17 Sudeste 0 -- -- 79
2018-02-16 12:00:00 15.7 8 Este 13 Este 0 -- -- 76
2018-02-16 11:00:00 15.7 6 Este 11 Sudeste 0 -- -- 74
2018-02-16 10:00:00 14.4 7 Este 10 Este 0 -- -- 75
2018-02-16 09:00:00 12.4 4 Sudeste 7 Sudeste 0 -- -- 85
2018-02-16 08:00:00 10.3 0 Calma 7 Oeste 0 -- -- 76
2018-02-16 07:00:00 10.5 3 Oeste 7 Oeste 0 -- -- 77
2018-02-16 06:00:00 10.7 0 Calma 11 Oeste 0 -- -- 82
2018-02-16 05:00:00 10.1 4 Oeste 6 Oeste 0 -- -- 84
2018-02-16 04:00:00 10.3 2 Sudeste 8 Sudoeste 0 -- -- 82
2018-02-16 03:00:00 10.6 3 Sur 13 Sudeste 0 -- -- 89
2018-02-16 02:00:00 11.8 4 Sudoeste 11 Oeste 0 -- -- 81
2018-02-16 01:00:00 11.3 6 Oeste 9 Oeste 0 -- -- 81
2018-02-16 00:00:00 11 3 Sur 6 Sur 0 -- -- 81
2018-02-15 23:00:00 11.2 5 Sur 10 Sudeste 0 -- -- 82
2018-02-15 22:00:00 11.1 2 Sudoeste 10 Sudeste 0 -- -- 80
2018-02-15 21:00:00 12.1 7 Sudeste 10 Sudoeste 0 -- -- 82
2018-02-15 20:00:00 11.5 2 Sudoeste 7 Sudeste 0 -- -- 76
2018-02-15 19:00:00 12.4 4 Sudeste 8 Sur 0 -- -- 81
2018-02-15 18:00:00 13.8 5 Sur 8 Sur 0 -- -- 79
2018-02-15 17:00:00 15.4 4 Sudeste 12 Sudeste 0 -- -- 75
2018-02-15 16:00:00 16.1 8 Sudeste 13 Este 0 -- -- 71
2018-02-15 15:00:00 16.3 7 Este 17 Sudeste 0 -- -- 66
2018-02-15 14:00:00 16.5 4 Este 15 Este 0 -- -- 62
2018-02-15 13:00:00 16 8 Este 15 Este 0 -- -- 62
2018-02-15 12:00:00 16.8 6 Este 12 Este 0 -- -- 60
2018-02-15 11:00:00 16.2 6 Este 13 Sudeste 0 -- -- 56
2018-02-15 10:00:00 16.1 2 Este 5 Este 0 -- -- 52
2018-02-15 09:00:00 12.7 3 Noroeste 6 Oeste 0 -- -- 55
2018-02-15 08:00:00 11.1 0 Calma 6 Sur 0 -- -- 58
2018-02-15 07:00:00 12.4 0 Calma 11 Oeste 0 -- -- 54
2018-02-15 06:00:00 11.7 2 Sur 12 Sudeste 0 -- -- 57
2018-02-15 05:00:00 12.6 0 Calma 8 Oeste 0 -- -- 53
2018-02-15 04:00:00 11.7 0 Calma 4 Oeste 0 -- -- 58
2018-02-15 03:00:00 11.5 2 Sur 9 Sur 0 -- -- 63
2018-02-15 02:00:00 11.8 3 Oeste 8 Sudoeste 0 -- -- 61
2018-02-15 01:00:00 11.9 6 Sur 12 Sur 0 -- -- 66
2018-02-15 00:00:00 12.1 2 Sudeste 10 Oeste 0 -- -- 59
2018-02-14 23:00:00 12.1 2 Sudoeste 6 Sudeste 0 -- -- 59
2018-02-14 22:00:00 13.5 3 Sur 9 Oeste 0 -- -- 55
2018-02-14 21:00:00 13.1 4 Sur 8 Sudoeste 0 -- -- 60
2018-02-14 20:00:00 12.8 2 Sudoeste 5 Sudoeste 0 -- -- 67
2018-02-14 19:00:00 13.8 4 Oeste 26 Sudoeste 0 -- -- 63
2018-02-14 18:00:00 14.5 12 Oeste 20 Oeste 0 -- -- 61
2018-02-14 17:00:00 15.9 9 Oeste 28 Oeste 0 -- -- 57
2018-02-14 16:00:00 16.7 10 Sur 28 Sudoeste 0 -- -- 51
2018-02-14 15:00:00 16.5 13 Oeste 28 Oeste 0 -- -- 53
2018-02-14 14:00:00 16.4 4 Este 17 Este 0 -- -- 45
2018-02-14 13:00:00 15.9 10 Este 14 Este 0 -- -- 43
2018-02-14 12:00:00 14.3 4 Este 13 Este 0 -- -- 54
2018-02-14 11:00:00 15.2 7 Este 11 Este 0 -- -- 48
2018-02-14 10:00:00 13.9 6 Este 11 Este 0 -- -- 47
2018-02-14 09:00:00 11.4 3 Sudoeste 5 Sudoeste 0 -- -- 55
2018-02-14 08:00:00 9.7 2 Oeste 6 Sudoeste 0 -- -- 58
2018-02-14 07:00:00 9.5 5 Sudeste 9 Sudeste 0 -- -- 57
2018-02-14 06:00:00 9.6 2 Sudoeste 8 Sur 0 -- -- 58
2018-02-14 05:00:00 9.8 4 Sur 6 Sur 0 -- -- 54
2018-02-14 04:00:00 11.3 0 Calma 14 Oeste 0 -- -- 43
2018-02-14 03:00:00 12.2 5 Oeste 17 Noroeste 0 -- -- 41
2018-02-14 02:00:00 11.8 12 Oeste 19 Oeste 0 -- -- 43
2018-02-14 01:00:00 12.1 8 Oeste 18 Oeste 0 -- -- 42
2018-02-14 00:00:00 11.3 12 Oeste 22 Oeste 0 -- -- 46
2018-02-13 23:00:00 11.7 9 Oeste 17 Norte 0 -- -- 44
2018-02-13 22:00:00 13.1 14 Noroeste 40 Noroeste 0 -- -- 38
2018-02-13 21:00:00 12.4 29 Oeste 46 Oeste 0 -- -- 44
2018-02-13 20:00:00 11.7 14 Oeste 34 Oeste 0 -- -- 73
2018-02-13 19:00:00 12.1 19 Oeste 42 Oeste 0 -- -- 67
2018-02-13 18:00:00 12.5 21 Oeste 46 Oeste 0 -- -- 63
2018-02-13 17:00:00 13 20 Sudoeste 39 Sudoeste 0 -- -- 59
2018-02-13 16:00:00 14.2 16 Sudoeste 41 Sur 0 -- -- 51
2018-02-13 15:00:00 14.3 17 Sudoeste 40 Oeste 0 -- -- 44
2018-02-13 14:00:00 14.6 14 Oeste 32 Oeste 0 -- -- 43
2018-02-13 13:00:00 14.5 14 Oeste 27 Oeste 0 -- -- 44
2018-02-13 12:00:00 14.4 9 Sudoeste 22 Sur 0 -- -- 45
2018-02-13 11:00:00 14.1 7 Sur 24 Sudoeste 0 -- -- 53
2018-02-13 10:00:00 13 8 Oeste 15 Noroeste 0 -- -- 53
2018-02-13 09:00:00 11.1 7 Oeste 13 Sudoeste 0 -- -- 57
2018-02-13 08:00:00 9.5 5 Sudoeste 10 Oeste 0 -- -- 48
2018-02-13 07:00:00 9.1 3 Oeste 16 Sudoeste 0 -- -- 42
2018-02-13 06:00:00 10.2 6 Oeste 15 Oeste 0 -- -- 36
2018-02-13 05:00:00 10.6 8 Sudoeste 18 Sur 0 -- -- 65
2018-02-13 04:00:00 11.2 10 Sudoeste 17 Sudoeste 0 -- -- 65
2018-02-13 03:00:00 10.9 3 Sudoeste 13 Sudeste 0 -- -- 67
2018-02-13 02:00:00 11.3 5 Sudeste 14 Este 0 -- -- 52
2018-02-13 01:00:00 11.6 3 Sudeste 10 Noroeste 0 -- -- 35
2018-02-13 00:00:00 13 8 Oeste 33 Oeste 0 -- -- 31
2018-02-12 23:00:00 13.6 32 Oeste 67 Oeste 0 -- -- 35
2018-02-12 22:00:00 13.6 46 Oeste 68 Oeste 0 -- -- 46
2018-02-12 21:00:00 13.6 37 Oeste 66 Noroeste 0 -- -- 54
2018-02-12 20:00:00 13.9 39 Oeste 59 Oeste 0 -- -- 54
2018-02-12 19:00:00 14.5 30 Oeste 46 Oeste 0 -- -- 59
2018-02-12 18:00:00 15.4 27 Noroeste 66 Noroeste 0 -- -- 53
2018-02-12 17:00:00 15.5 33 Oeste 62 Oeste 0 -- -- 55
2018-02-12 16:00:00 16.4 44 Oeste 65 Oeste 0 -- -- 53
2018-02-12 15:00:00 16.2 42 Oeste 60 Oeste 0 -- -- 55
2018-02-12 14:00:00 16.9 28 Oeste 50 Oeste 0 -- -- 52
2018-02-12 13:00:00 17.5 26 Noroeste 53 Oeste 0 -- -- 51
2018-02-12 12:00:00 16.7 33 Oeste 49 Oeste 0 -- -- 52
2018-02-12 11:00:00 16.1 30 Oeste 55 Oeste 0 -- -- 53
2018-02-12 10:00:00 16 41 Oeste 58 Oeste 0 -- -- 51
2018-02-12 09:00:00 15.3 37 Oeste 59 Oeste 0 -- -- 52
2018-02-12 08:00:00 15.8 33 Oeste 58 Noroeste 0 -- -- 46
2018-02-12 07:00:00 15.1 32 Oeste 51 Noroeste 0 -- -- 52
2018-02-12 06:00:00 15.3 29 Oeste 44 Oeste 0 -- -- 50
2018-02-12 05:00:00 14.9 24 Oeste 40 Oeste 0 -- -- 52
2018-02-12 04:00:00 15.6 7 Oeste 37 Noroeste 0 -- -- 49
2018-02-12 03:00:00 15.1 15 Noroeste 24 Noroeste 0 -- -- 50
2018-02-12 02:00:00 11.1 2 Sudoeste 6 Sudeste 0 -- -- 57
2018-02-12 01:00:00 14.4 5 Oeste 19 Oeste 0 -- -- 45
2018-02-12 00:00:00 13.6 8 Oeste 18 Oeste 0 -- -- 49
2018-02-11 23:00:00 11.3 5 Sudoeste 8 Oeste 0 -- -- 63
2018-02-11 22:00:00 11 6 Sudeste 9 Sudeste 0 -- -- 69
2018-02-11 21:00:00 11.3 4 Sudoeste 10 Sudoeste 0 -- -- 66
2018-02-11 20:00:00 11.6 0 Calma 10 Sudeste 0 -- -- 64
2018-02-11 19:00:00 12.9 3 Oeste 21 Sudoeste 0 -- -- 57
2018-02-11 18:00:00 13.2 12 Oeste 42 Sudoeste 0 -- -- 56
2018-02-11 17:00:00 13.7 19 Oeste 35 Oeste 0 -- -- 58
2018-02-11 16:00:00 15 21 Sudoeste 36 Sudoeste 0 -- -- 50
2018-02-11 15:00:00 15.8 12 Oeste 27 Oeste 0 -- -- 36
2018-02-11 14:00:00 15 14 Sudoeste 28 Sur 0 -- -- 42
2018-02-11 13:00:00 14.8 13 Sudoeste 23 Sudoeste 0 -- -- 45
2018-02-11 12:00:00 15.2 8 Sur 21 Sudeste 0 -- -- 40
2018-02-11 11:00:00 14.3 3 Nordeste 19 Oeste 0 -- -- 43
2018-02-11 10:00:00 12.2 15 Noroeste 22 Noroeste 0 -- -- 42
2018-02-11 09:00:00 9.9 5 Oeste 15 Oeste 0 -- -- 54
2018-02-11 08:00:00 8.7 7 Oeste 16 Oeste 0 -- -- 68
2018-02-11 07:00:00 8.3 9 Oeste 15 Oeste 0 -- -- 75
2018-02-11 06:00:00 8.4 10 Oeste 15 Oeste 0 -- -- 73
2018-02-11 05:00:00 9.2 5 Sudoeste 10 Sudoeste 0 -- -- 81
2018-02-11 04:00:00 9.4 9 Sudoeste 12 Sudoeste 0 -- -- 79
2018-02-11 03:00:00 9.2 9 Sudoeste 10 Sudoeste 0 -- -- 80
2018-02-11 02:00:00 9.2 3 Sudoeste 6 Sudoeste 0 -- -- 80
2018-02-11 01:00:00 9.6 4 Sudoeste 5 Sudoeste 0 -- -- 80
2018-02-11 00:00:00 9.7 4 Sudoeste 5 Oeste 0 -- -- 79
2018-02-10 23:00:00 9.7 3 Oeste 8 Oeste 0 -- -- 79
2018-02-10 22:00:00 9.4 4 Oeste 8 Oeste 0 -- -- 74
2018-02-10 21:00:00 9.8 5 Oeste 11 Oeste 0 -- -- 75
2018-02-10 20:00:00 9.3 2 Oeste 10 Este 0 -- -- 76
2018-02-10 19:00:00 9.8 3 Este 8 Este 0 -- -- 77
2018-02-10 18:00:00 10.5 3 Sudeste 9 Sudeste 0 -- -- 68
2018-02-10 17:00:00 13.1 0 Calma 15 Este 0 -- -- 58
2018-02-10 16:00:00 14.1 7 Sudeste 17 Sudeste 0 -- -- 49
2018-02-10 15:00:00 15 6 Sudeste 14 Sudeste 0 -- -- 43
2018-02-10 14:00:00 14.7 5 Este 14 Este 0 -- -- 46
2018-02-10 13:00:00 14.7 6 Este 14 Sudeste 0 -- -- 48
2018-02-10 12:00:00 12.8 4 Sudeste 10 Este 0 -- -- 52
2018-02-10 11:00:00 12.9 2 Sudeste 5 Sudeste 0 -- -- 44
2018-02-10 10:00:00 11 0 Calma 5 Oeste 0 -- -- 51
2018-02-10 09:00:00 8.7 3 Oeste 5 Oeste 0 -- -- 57
2018-02-10 08:00:00 8.2 3 Sudeste 11 Sudeste 0 -- -- 61
2018-02-10 07:00:00 8.2 4 Sur 12 Oeste 0 -- -- 55
2018-02-10 06:00:00 9.3 6 Oeste 21 Noroeste 0 -- -- 49
2018-02-10 05:00:00 8.7 13 Oeste 18 Oeste 0 -- -- 51
2018-02-10 04:00:00 8.8 4 Oeste 15 Oeste 0 -- -- 49
2018-02-10 03:00:00 8.9 4 Oeste 12 Oeste 0 -- -- 49
2018-02-10 02:00:00 8.9 5 Oeste 10 Noroeste 0 -- -- 48
2018-02-10 01:00:00 8.6 3 Oeste 14 Oeste 0 -- -- 49
2018-02-10 00:00:00 8.4 4 Oeste 12 Oeste 0 -- -- 49
2018-02-09 23:00:00 8.6 5 Oeste 15 Sudoeste 0 -- -- 49
2018-02-09 22:00:00 8.6 6 Oeste 17 Oeste 0 -- -- 47
2018-02-09 21:00:00 8.3 3 Oeste 8 Oeste 0 -- -- 51
2018-02-09 20:00:00 7.8 0 Calma 7 Oeste 0 -- -- 54
2018-02-09 19:00:00 8.1 4 Sudoeste 9 Sur 0 -- -- 53
2018-02-09 18:00:00 9 5 Sur 10 Sur 0 -- -- 53
2018-02-09 17:00:00 11.5 6 Sur 14 Sudoeste 0 -- -- 47
2018-02-09 16:00:00 11 6 Sur 19 Sudeste 0 -- -- 49
2018-02-09 15:00:00 10.6 6 Sur 21 Este 0 -- -- 66
2018-02-09 14:00:00 11.6 9 Sudeste 19 Este 0 -- -- 63
2018-02-09 13:00:00 12 13 Este 20 Este 0 -- -- 62
2018-02-09 12:00:00 10.8 5 Este 16 Este 0 -- -- 62
2018-02-09 11:00:00 12 9 Este 17 Este 0 -- -- 63
2018-02-09 10:00:00 10.7 3 Este 17 Noroeste 0 -- -- 53
2018-02-09 09:00:00 7.4 11 Noroeste 21 Oeste 0 -- -- 48
2018-02-09 08:00:00 6.5 11 Oeste 21 Oeste 0 -- -- 52
2018-02-09 07:00:00 6.4 10 Oeste 18 Oeste 0 -- -- 54
2018-02-09 06:00:00 7.9 13 Oeste 22 Noroeste 0 -- -- 40
2018-02-09 05:00:00 8.2 11 Oeste 21 Oeste 0 -- -- 44
2018-02-09 04:00:00 7.4 8 Sudoeste 14 Oeste 0 -- -- 64
2018-02-09 03:00:00 7.5 7 Oeste 16 Oeste 0 -- -- 56
2018-02-09 02:00:00 7.7 4 Oeste 17 Sudoeste 0 -- -- 55
2018-02-09 01:00:00 7.6 5 Sudoeste 9 Sudoeste 0 -- -- 72
2018-02-09 00:00:00 8.1 5 Sudoeste 8 Sudoeste 0 -- -- 78
2018-02-08 23:00:00 8.9 0 Calma 8 Sur 0 -- -- 77
2018-02-08 22:00:00 9 5 Sudoeste 10 Sudoeste 0 -- -- 74
2018-02-08 21:00:00 8.7 6 Sudoeste 8 Sudoeste 0 -- -- 73
2018-02-08 20:00:00 8.7 3 Sudoeste 6 Sudoeste 0 -- -- 73
2018-02-08 19:00:00 9.7 3 Sur 6 Sudoeste 0 -- -- 69
2018-02-08 18:00:00 10.5 5 Sudeste 13 Sudeste 0 -- -- 66
2018-02-08 17:00:00 11.1 7 Sudeste 16 Este 0 -- -- 65
2018-02-08 16:00:00 11.8 12 Sudeste 24 Este 0 -- -- 59
2018-02-08 15:00:00 11.6 15 Sudeste 23 Este 0 -- -- 64
2018-02-08 14:00:00 12.3 12 Este 19 Sudeste 0 -- -- 59
2018-02-08 13:00:00 12.2 11 Este 22 Este 0 -- -- 61
2018-02-08 12:00:00 12 13 Este 23 Este 0 -- -- 56
2018-02-08 11:00:00 12.2 13 Este 19 Sudeste 0 -- -- 51
2018-02-08 10:00:00 11.8 6 Este 10 Nordeste 0 -- -- 52
2018-02-08 09:00:00 8.9 0 Calma 13 Sudeste 0 -- -- 58
2018-02-08 08:00:00 7.1 0 Calma 5 Nordeste 0 -- -- 63
2018-02-08 07:00:00 6.9 0 Calma 6 Noroeste 0 -- -- 65
2018-02-08 06:00:00 7.4 3 Sudoeste 12 Oeste 0 -- -- 61
2018-02-08 05:00:00 7.5 5 Oeste 9 Oeste 0 -- -- 60
2018-02-08 04:00:00 7.3 2 Oeste 10 Este 0 -- -- 63
2018-02-08 03:00:00 8 4 Sudeste 11 Este 0 -- -- 59
2018-02-08 02:00:00 7.9 2 Oeste 5 Oeste 0 -- -- 57
2018-02-08 01:00:00 7.4 2 Sur 7 Noroeste 0 -- -- 59
2018-02-08 00:00:00 7.9 5 Oeste 9 Oeste 0 -- -- 62
2018-02-07 23:00:00 7.6 0 Calma 4 Este 0 -- -- 68
2018-02-07 22:00:00 8.7 3 Este 7 Este 0 -- -- 64
2018-02-07 21:00:00 9.1 3 Sudeste 8 Oeste 0 -- -- 66
2018-02-07 20:00:00 9 4 Oeste 10 Oeste 0 -- -- 62
2018-02-07 19:00:00 8.9 3 Oeste 12 Sudoeste 0 -- -- 64
2018-02-07 18:00:00 9.4 9 Oeste 21 Oeste 0 -- -- 70
2018-02-07 17:00:00 10 10 Oeste 20 Oeste 0 -- -- 67
2018-02-07 16:00:00 12.3 12 Sudoeste 22 Sudoeste 0 -- -- 54
2018-02-07 15:00:00 12.6 10 Sur 23 Sur 0 -- -- 52
2018-02-07 14:00:00 11.4 6 Sudoeste 18 Sudoeste 0 -- -- 50
2018-02-07 13:00:00 11.2 5 Nordeste 20 Este 0 -- -- 49
2018-02-07 12:00:00 12.2 13 Este 20 Sudeste 0 -- -- 53
2018-02-07 11:00:00 12.8 4 Sudeste 10 Noroeste 0 -- -- 44
2018-02-07 10:00:00 10.1 6 Noroeste 15 Noroeste 0 -- -- 47
2018-02-07 09:00:00 8 9 Noroeste 15 Oeste 0 -- -- 54
2018-02-07 08:00:00 6.9 4 Oeste 10 Oeste 0 -- -- 56
2018-02-07 07:00:00 6.6 3 Oeste 12 Oeste 0 -- -- 59
2018-02-07 06:00:00 7.4 4 Oeste 20 Oeste 0 -- -- 55
2018-02-07 05:00:00 7.4 10 Oeste 17 Oeste 0 -- -- 53
2018-02-07 04:00:00 7.4 12 Oeste 17 Oeste 0 -- -- 54
2018-02-07 03:00:00 7.8 9 Oeste 16 Oeste 0 -- -- 52
2018-02-07 02:00:00 7.9 11 Oeste 14 Oeste 0 -- -- 52
2018-02-07 01:00:00 7.4 3 Oeste 13 Sudoeste 0 -- -- 54
2018-02-07 00:00:00 7.9 5 Sudoeste 15 Oeste 0 -- -- 53
2018-02-06 23:00:00 8 7 Oeste 12 Oeste 0 -- -- 53
2018-02-06 22:00:00 8.1 6 Sudoeste 16 Oeste 0 -- -- 53
2018-02-06 21:00:00 8.8 6 Oeste 12 Sudoeste 0 -- -- 50
2018-02-06 20:00:00 8.4 3 Sudeste 16 Oeste 0 -- -- 53
2018-02-06 19:00:00 9.3 11 Sudoeste 22 Oeste 0 -- -- 48
2018-02-06 18:00:00 10.6 11 Noroeste 36 Noroeste 0 -- -- 41
2018-02-06 17:00:00 11.4 21 Noroeste 32 Oeste 0 -- -- 41
2018-02-06 16:00:00 12.8 14 Oeste 26 Oeste 0 -- -- 40
2018-02-06 15:00:00 12.7 6 Oeste 29 Sudeste 0 -- -- 40
2018-02-06 14:00:00 12.5 11 Este 21 Este 0 -- -- 43
2018-02-06 13:00:00 12.2 9 Este 19 Sudeste 0 -- -- 50
2018-02-06 12:00:00 11.9 9 Sudeste 17 Sudeste 0 -- -- 47
2018-02-06 11:00:00 10.6 0 Calma 8 Nordeste 0 -- -- 48
2018-02-06 10:00:00 9.8 3 Norte 12 Oeste 0 -- -- 52
2018-02-06 09:00:00 7.2 9 Oeste 14 Oeste 0 -- -- 55
2018-02-06 08:00:00 6.5 6 Oeste 18 Sudoeste 0 -- -- 52
2018-02-06 07:00:00 6.2 11 Oeste 17 Oeste 0 -- -- 52
2018-02-06 06:00:00 6.3 10 Oeste 19 Oeste 0 -- -- 54
2018-02-06 05:00:00 5.9 10 Oeste 17 Oeste 0 -- -- 59
2018-02-06 04:00:00 6 9 Oeste 18 Oeste 0 -- -- 57
2018-02-06 03:00:00 6.2 13 Oeste 21 Oeste 0 -- -- 57
2018-02-06 02:00:00 6.5 10 Oeste 22 Oeste 0 -- -- 58
2018-02-06 01:00:00 6.3 12 Oeste 20 Noroeste 0 -- -- 60
2018-02-06 00:00:00 6.4 11 Oeste 18 Oeste 0 -- -- 62
2018-02-05 23:00:00 6.7 10 Oeste 19 Oeste 0 -- -- 62
2018-02-05 22:00:00 6.9 10 Oeste 27 Oeste 0 -- -- 60
2018-02-05 21:00:00 7.2 17 Oeste 39 Oeste 0 -- -- 58
2018-02-05 20:00:00 7.9 23 Oeste 34 Oeste 0 -- -- 54
2018-02-05 19:00:00 8.1 17 Oeste 27 Oeste 0 -- -- 52
2018-02-05 18:00:00 9 20 Oeste 36 Sudoeste 0 -- -- 52
2018-02-05 17:00:00 9.7 18 Oeste 30 Oeste 0 -- -- 51
2018-02-05 16:00:00 10.6 17 Oeste 30 Noroeste 0 -- -- 48
2018-02-05 15:00:00 11.3 17 Oeste 35 Sudoeste 0 -- -- 53
2018-02-05 14:00:00 11.1 16 Oeste 33 Oeste 0 -- -- 55
2018-02-05 13:00:00 11 12 Oeste 26 Oeste 0 -- -- 48
2018-02-05 12:00:00 10.2 12 Oeste 28 Noroeste 0 -- -- 47
2018-02-05 11:00:00 9.8 12 Noroeste 27 Noroeste 0 -- -- 49
2018-02-05 10:00:00 8 11 Oeste 20 Noroeste 0 -- -- 54
2018-02-05 09:00:00 6.6 10 Oeste 19 Noroeste 0 -- -- 58
2018-02-05 08:00:00 6.2 11 Oeste 22 Oeste 0 -- -- 61
2018-02-05 07:00:00 6.2 13 Oeste 19 Oeste 0 -- -- 61
2018-02-05 06:00:00 6.3 12 Sudoeste 17 Oeste 0 -- -- 64
2018-02-05 05:00:00 6.1 13 Oeste 19 Sudoeste 0 -- -- 66
2018-02-05 04:00:00 6 5 Oeste 22 Oeste 0 -- -- 69
2018-02-05 03:00:00 6.2 9 Oeste 20 Oeste 0 -- -- 71
2018-02-05 02:00:00 6 7 Oeste 19 Oeste 0 -- -- 73
2018-02-05 01:00:00 6 5 Sudoeste 12 Sudoeste 0 -- -- 78
2018-02-05 00:00:00 6.6 3 Oeste 15 Sudoeste 0 -- -- 78
2018-02-04 23:00:00 6.4 4 Oeste 13 Sudoeste 0 -- -- 81
2018-02-04 22:00:00 6.3 5 Sudoeste 22 Noroeste 0.4 -- -- 86
2018-02-04 21:00:00 7 10 Oeste 24 Sudoeste 3.8 -- -- 88
2018-02-04 20:00:00 8.4 3 Oeste 22 Oeste 0 -- -- 82
2018-02-04 19:00:00 8.3 7 Sudoeste 17 Oeste 0 -- -- 78
2018-02-04 18:00:00 8.7 13 Oeste 32 Oeste 0 -- -- 81
2018-02-04 17:00:00 10.1 15 Oeste 26 Oeste 0 -- -- 74
2018-02-04 16:00:00 11.1 12 Oeste 32 Oeste 0 -- -- 69
2018-02-04 15:00:00 11.1 17 Oeste 35 Oeste 0 -- -- 70
2018-02-04 14:00:00 11.6 21 Oeste 40 Oeste 0 -- -- 69
2018-02-04 13:00:00 10.9 20 Oeste 35 Oeste 0 -- -- 73
2018-02-04 12:00:00 10.1 19 Oeste 41 Oeste 0 -- -- 77
2018-02-04 11:00:00 9.9 21 Oeste 39 Oeste 0 -- -- 68
2018-02-04 10:00:00 9.7 22 Oeste 36 Oeste 0 -- -- 65
2018-02-04 09:00:00 9.7 21 Oeste 37 Oeste 0 -- -- 52
2018-02-04 08:00:00 10.2 18 Oeste 32 Oeste 0 -- -- 46
2018-02-04 07:00:00 9.5 16 Oeste 33 Oeste 0 -- -- 43
2018-02-04 06:00:00 10.5 22 Oeste 46 Oeste 0 -- -- 40
2018-02-04 05:00:00 10.6 26 Oeste 42 Oeste 0 -- -- 39
2018-02-04 04:00:00 9.5 8 Oeste 17 Noroeste 0 -- -- 42
2018-02-04 03:00:00 9.1 8 Noroeste 24 Norte 0 -- -- 41
2018-02-04 02:00:00 9.4 6 Noroeste 19 Oeste 0 -- -- 40
2018-02-04 01:00:00 9.6 10 Oeste 17 Oeste 0 -- -- 38
2018-02-04 00:00:00 9.1 11 Oeste 18 Oeste 0 -- -- 40
2018-02-03 23:00:00 9.5 11 Oeste 15 Oeste 0 -- -- 39
2018-02-03 22:00:00 9.5 9 Oeste 20 Oeste 0 -- -- 38
2018-02-03 21:00:00 9.3 12 Oeste 17 Oeste 0 -- -- 41
2018-02-03 20:00:00 10.4 10 Noroeste 24 Oeste 0 -- -- 35
2018-02-03 19:00:00 10.5 9 Sudoeste 19 Sudoeste 0 -- -- 51
2018-02-03 18:00:00 11.1 9 Sudoeste 20 Sudoeste 0 -- -- 40
2018-02-03 17:00:00 11.5 12 Sudoeste 27 Oeste 0 -- -- 30
2018-02-03 16:00:00 13.4 10 Sudoeste 20 Sur 0 -- -- 37
2018-02-03 15:00:00 13.2 9 Sudeste 19 Sudeste 0 -- -- 43
2018-02-03 14:00:00 13.1 9 Este 17 Este 0 -- -- 44
2018-02-03 13:00:00 13 9 Este 18 Este 0 -- -- 46
2018-02-03 12:00:00 12.9 8 Nordeste 16 Nordeste 0 -- -- 47
2018-02-03 11:00:00 12.5 10 Este 15 Este 0 -- -- 47
2018-02-03 10:00:00 11.5 4 Nordeste 11 Oeste 0 -- -- 41
2018-02-03 09:00:00 9.5 6 Oeste 15 Oeste 0 -- -- 50
2018-02-03 08:00:00 8.2 9 Oeste 16 Oeste 0 -- -- 51
2018-02-03 07:00:00 7.8 9 Oeste 16 Sudoeste 0 -- -- 50
2018-02-03 06:00:00 7.9 10 Oeste 17 Noroeste 0 -- -- 50
2018-02-03 05:00:00 8.5 9 Oeste 21 Oeste 0 -- -- 47
2018-02-03 04:00:00 8 11 Oeste 26 Noroeste 0 -- -- 47
2018-02-03 03:00:00 7.9 13 Oeste 21 Oeste 0 -- -- 46
2018-02-03 02:00:00 8.9 10 Oeste 17 Oeste 0 -- -- 46
2018-02-03 01:00:00 8.6 10 Oeste 18 Oeste 0 -- -- 48
2018-02-03 00:00:00 8.7 5 Oeste 11 Oeste 0 -- -- 49
2018-02-02 23:00:00 8.7 2 Sudoeste 14 Sudoeste 0 -- -- 50
2018-02-02 22:00:00 9.5 9 Sudoeste 19 Sudoeste 0 -- -- 47
2018-02-02 21:00:00 9.6 6 Sudoeste 15 Sudoeste 0 -- -- 41
2018-02-02 20:00:00 9.3 5 Sudoeste 16 Sudoeste 0 -- -- 38
2018-02-02 19:00:00 10 14 Oeste 23 Sudoeste 0 -- -- 35
2018-02-02 18:00:00 11.5 5 Sudoeste 14 Sudeste 0 -- -- 46
2018-02-02 17:00:00 12.7 10 Sudeste 23 Este 0 -- -- 45
2018-02-02 16:00:00 12.8 15 Este 22 Este 0 -- -- 50
2018-02-02 15:00:00 14.1 5 Sudeste 21 Este 0 -- -- 46
2018-02-02 14:00:00 13.1 11 Este 21 Este 0 -- -- 47
2018-02-02 13:00:00 13.5 10 Este 18 Este 0 -- -- 44
2018-02-02 12:00:00 12.9 11 Este 18 Este 0 -- -- 46
2018-02-02 11:00:00 12.7 5 Nordeste 10 Este 0 -- -- 41
2018-02-02 10:00:00 9.6 4 Sudoeste 9 Sudeste 0 -- -- 46
2018-02-02 09:00:00 9.1 3 Oeste 15 Noroeste 0 -- -- 46
2018-02-02 08:00:00 9.2 8 Noroeste 43 Noroeste 0 -- -- 45
2018-02-02 07:00:00 8.7 30 Noroeste 47 Noroeste 0 -- -- 52
2018-02-02 06:00:00 8.9 6 Noroeste 71 Oeste 0 -- -- 53
2018-02-02 05:00:00 8.8 41 Oeste 63 Oeste 0 -- -- 59
2018-02-02 04:00:00 9.5 36 Oeste 52 Oeste 0 -- -- 53
2018-02-02 03:00:00 11.2 26 Oeste 54 Oeste 0 -- -- 43
2018-02-02 02:00:00 10.2 34 Noroeste 60 Noroeste 0 -- -- 59
2018-02-02 01:00:00 11.7 17 Oeste 35 Sudoeste 0 -- -- 58
2018-02-02 00:00:00 11.9 22 Oeste 36 Oeste 0 -- -- 63
2018-02-01 23:00:00 12.5 14 Oeste 30 Oeste 0 -- -- 57
2018-02-01 22:00:00 12.8 18 Oeste 42 Oeste 0 -- -- 59
2018-02-01 21:00:00 12.7 28 Oeste 42 Oeste 0 -- -- 81
2018-02-01 20:00:00 13.6 23 Oeste 50 Oeste 0 -- -- 57
2018-02-01 19:00:00 12.9 23 Oeste 44 Oeste 0 -- -- 80
2018-02-01 18:00:00 14.6 24 Oeste 53 Oeste 0 -- -- 55
2018-02-01 17:00:00 14.1 36 Oeste 63 Noroeste 0 -- -- 73
2018-02-01 16:00:00 14.3 33 Oeste 57 Oeste 0 -- -- 65
2018-02-01 15:00:00 15.6 33 Oeste 60 Oeste 0 -- -- 59
2018-02-01 14:00:00 15.6 44 Oeste 72 Oeste 0 -- -- 52
2018-02-01 13:00:00 14.8 35 Oeste 55 Noroeste 0 -- -- 55
2018-02-01 12:00:00 14.4 26 Oeste 44 Noroeste 0.2 -- -- 59
2018-02-01 11:00:00 13.6 17 Oeste 30 Oeste 0 -- -- 66
2018-02-01 10:00:00 12.2 17 Sudoeste 26 Oeste 0 -- -- 76
2018-02-01 09:00:00 10.7 6 Sudoeste 10 Sudoeste 0 -- -- 82
2018-02-01 08:00:00 10.3 5 Oeste 15 Oeste 0 -- -- 90
2018-02-01 07:00:00 10.9 9 Oeste 17 Noroeste 0.2 -- -- 90
2018-02-01 06:00:00 11.1 6 Sudoeste 8 Sudoeste 0.2 -- -- 87
2018-02-01 05:00:00 11.4 4 Sudeste 9 Sudeste 0 -- -- 82
2018-02-01 04:00:00 11.9 6 Sur 12 Sudeste 0.2 -- -- 79
2018-02-01 03:00:00 12.5 0 Calma 10 Sur 0 -- -- 71
2018-02-01 02:00:00 13 9 Oeste 18 Oeste 0 -- -- 67
2018-02-01 01:00:00 11.8 12 Oeste 20 Noroeste 0 -- -- 74
2018-02-01 00:00:00 11.7 7 Noroeste 20 Noroeste 0.8 -- -- 75
2018-01-31 23:00:00 11.2 5 Oeste 10 Sudeste 2.8 -- -- 92
2018-01-31 22:00:00 11.6 0 Calma 18 Sudeste 0 -- -- 90
2018-01-31 21:00:00 11.9 6 Sur 13 Este 0 -- -- 85
2018-01-31 20:00:00 11.8 9 Sudeste 18 Sur 0 -- -- 86
2018-01-31 19:00:00 11.9 8 Sudeste 15 Este 0 -- -- 86
2018-01-31 18:00:00 12.2 14 Este 32 Este 0 -- -- 85
2018-01-31 17:00:00 12.8 18 Este 24 Este 0 -- -- 83
2018-01-31 16:00:00 13.5 8 Sudeste 17 Sudeste 0 -- -- 74
2018-01-31 15:00:00 14.4 9 Este 22 Sudeste 0 -- -- 67
2018-01-31 14:00:00 15.5 9 Sudeste 21 Sudeste 0 -- -- 51
2018-01-31 13:00:00 16.3 8 Este 13 Este 0 -- -- 40
2018-01-31 12:00:00 15.2 7 Este 12 Sudeste 0 -- -- 41
2018-01-31 11:00:00 13.5 6 Sudeste 12 Sudeste 0 -- -- 49
2018-01-31 10:00:00 13.4 7 Oeste 13 Oeste 0 -- -- 43
2018-01-31 09:00:00 11.9 2 Sudoeste 10 Noroeste 0 -- -- 54
2018-01-31 08:00:00 10.6 4 Oeste 7 Noroeste 0 -- -- 69
2018-01-31 07:00:00 11.2 4 Sur 14 Oeste 0 -- -- 59
2018-01-31 06:00:00 10.7 2 Oeste 7 Oeste 0 -- -- 65
2018-01-31 05:00:00 10.8 0 Calma 14 Sur 0 -- -- 68
2018-01-31 04:00:00 11.1 2 Sudoeste 19 Sudoeste 0 -- -- 63
2018-01-31 03:00:00 11.1 2 Sur 16 Sudoeste 0 -- -- 64
2018-01-31 02:00:00 11.7 11 Sudoeste 20 Sudoeste 0 -- -- 68
2018-01-31 01:00:00 11.5 7 Sudoeste 18 Sudoeste 0 -- -- 75
2018-01-31 00:00:00 11.4 7 Sur 14 Sur 0 -- -- 71
2018-01-30 23:00:00 11.2 4 Sudoeste 11 Sudeste 0 -- -- 76
2018-01-30 22:00:00 11.2 6 Sudeste 12 Sudeste 0 -- -- 82
2018-01-30 21:00:00 11.4 2 Sudeste 18 Este 0 -- -- 79
2018-01-30 20:00:00 12.3 8 Sudeste 24 Este 0 -- -- 78
2018-01-30 19:00:00 12.5 17 Este 34 Este 0 -- -- 83
2018-01-30 18:00:00 13 23 Este 36 Este 0 -- -- 83
2018-01-30 17:00:00 13.6 22 Este 36 Nordeste 0 -- -- 78
2018-01-30 16:00:00 14.4 21 Este 40 Este 0 -- -- 74
2018-01-30 15:00:00 15.1 23 Este 36 Este 0 -- -- 68
2018-01-30 14:00:00 15.1 18 Este 33 Este 0 -- -- 72
2018-01-30 13:00:00 15.4 21 Este 35 Este 0 -- -- 66
2018-01-30 12:00:00 15.4 18 Este 33 Este 0 -- -- 62
2018-01-30 11:00:00 15.1 9 Este 20 Este 0 -- -- 55
2018-01-30 10:00:00 13.7 0 Calma 8 Este 0 -- -- 53
2018-01-30 09:00:00 11.7 5 Sudeste 15 Sudeste 0 -- -- 62
2018-01-30 08:00:00 11.4 4 Sudeste 15 Este 0 -- -- 60
2018-01-30 07:00:00 11.8 8 Este 19 Sudeste 0 -- -- 59
2018-01-30 06:00:00 11.7 6 Este 19 Sudeste 0 -- -- 60
2018-01-30 05:00:00 12.1 7 Sudeste 17 Sudeste 0 -- -- 59
2018-01-30 04:00:00 11.9 7 Este 14 Sudeste 0 -- -- 57
2018-01-30 03:00:00 11.8 6 Este 13 Este 0 -- -- 61
2018-01-30 02:00:00 12 6 Este 26 Este 0 -- -- 67
2018-01-30 01:00:00 12.3 5 Este 30 Este 0 -- -- 68
2018-01-30 00:00:00 12.7 12 Sudeste 24 Este 0 -- -- 66
2018-01-29 23:00:00 12.3 9 Este 24 Sudeste 0 -- -- 71
2018-01-29 22:00:00 12.2 13 Este 23 Sudeste 0 -- -- 76
2018-01-29 21:00:00 12.1 11 Este 40 Este 0 -- -- 75
2018-01-29 20:00:00 12.4 24 Este 43 Este 0 -- -- 80
2018-01-29 19:00:00 12.6 29 Este 45 Este 0 -- -- 79
2018-01-29 18:00:00 13.1 28 Este 44 Este 0 -- -- 78
2018-01-29 17:00:00 14.1 31 Este 44 Este 0 -- -- 71
2018-01-29 16:00:00 15 28 Este 45 Este 0 -- -- 67
2018-01-29 15:00:00 15.6 28 Este 51 Este 0 -- -- 60
2018-01-29 14:00:00 15.1 31 Este 45 Este 0 -- -- 62
2018-01-29 13:00:00 15.1 25 Este 40 Este 0 -- -- 62
2018-01-29 12:00:00 15.7 24 Este 41 Este 0 -- -- 53
2018-01-29 11:00:00 17.3 19 Este 32 Este 0 -- -- 37
2018-01-29 10:00:00 16.3 16 Este 41 Este 0 -- -- 38
2018-01-29 09:00:00 15.1 12 Nordeste 32 Este 0 -- -- 41
2018-01-29 08:00:00 14.8 13 Nordeste 30 Este 0 -- -- 41
2018-01-29 07:00:00 14.5 15 Este 42 Este 0 -- -- 43
2018-01-29 06:00:00 13.7 26 Este 46 Este 0 -- -- 56
2018-01-29 05:00:00 15 18 Este 36 Este 0 -- -- 41
2018-01-29 04:00:00 15.5 21 Este 41 Nordeste 0 -- -- 40
2018-01-29 03:00:00 15.3 23 Nordeste 47 Este 0 -- -- 44
2018-01-29 02:00:00 15 20 Nordeste 49 Norte 0 -- -- 47
2018-01-29 01:00:00 14.8 21 Nordeste 49 Sudeste 0 -- -- 46
2018-01-29 00:00:00 14.8 23 Nordeste 48 Nordeste 0 -- -- 44
2018-01-28 23:00:00 14.6 21 Nordeste 46 Este 0 -- -- 47
2018-01-28 22:00:00 13.4 14 Nordeste 41 Nordeste 0 -- -- 51
2018-01-28 21:00:00 13.1 19 Nordeste 41 Este 0 -- -- 49
2018-01-28 20:00:00 12.2 18 Nordeste 35 Este 0 -- -- 49
2018-01-28 19:00:00 11.6 14 Nordeste 45 Este 0 -- -- 51
2018-01-28 18:00:00 11.9 33 Este 56 Este 0 -- -- 60
2018-01-28 17:00:00 11.4 36 Este 52 Este 0 -- -- 68
2018-01-28 16:00:00 11.8 41 Este 69 Este 0 -- -- 67
2018-01-28 15:00:00 10.4 44 Este 68 Este 0 -- -- 73
2018-01-28 14:00:00 10.9 52 Este 80 Este 0.2 -- -- 69
2018-01-28 13:00:00 11.7 47 Este 70 Este 0 -- -- 70
2018-01-28 12:00:00 10.6 26 Este 42 Este 0 -- -- 74
2018-01-28 11:00:00 10.9 5 Este 15 Norte 0 -- -- 58
2018-01-28 10:00:00 10.2 5 Sur 12 Sudoeste 0 -- -- 63
2018-01-28 09:00:00 8.8 5 Sudoeste 8 Oeste 0 -- -- 70
2018-01-28 08:00:00 8.4 0 Calma 6 Oeste 0 -- -- 70
2018-01-28 07:00:00 8.9 4 Oeste 11 Oeste 0 -- -- 66
2018-01-28 06:00:00 8.9 5 Oeste 13 Noroeste 0 -- -- 64
2018-01-28 05:00:00 9.4 3 Noroeste 9 Nordeste 0 -- -- 59
2018-01-28 04:00:00 9.5 4 Sudoeste 10 Oeste 0 -- -- 56
2018-01-28 03:00:00 9.2 7 Oeste 13 Oeste 0 -- -- 55
2018-01-28 02:00:00 8.9 3 Oeste 15 Oeste 0 -- -- 61
2018-01-28 01:00:00 8.4 5 Sudoeste 13 Oeste 0 -- -- 67
2018-01-28 00:00:00 8.5 5 Oeste 12 Sudoeste 0 -- -- 71
2018-01-27 23:00:00 8.3 8 Sudoeste 15 Oeste 0 -- -- 75
2018-01-27 22:00:00 8.6 11 Sudoeste 15 Sudoeste 0 -- -- 76
2018-01-27 21:00:00 8.4 5 Oeste 13 Noroeste 0 -- -- 77
2018-01-27 20:00:00 7.6 10 Sudoeste 19 Norte 6.6 -- -- 82
2018-01-27 19:00:00 10.3 0 Calma 12 Este 0 -- -- 70
2018-01-27 18:00:00 11.4 4 Sudeste 21 Sudeste 0 -- -- 56
2018-01-27 17:00:00 12.6 8 Sur 17 Sudeste 0 -- -- 48
2018-01-27 16:00:00 13.6 8 Sur 21 Sur 0 -- -- 41
2018-01-27 15:00:00 13.3 9 Sur 22 Sudeste 0 -- -- 42
2018-01-27 14:00:00 15.4 10 Sur 22 Sur 0 -- -- 35
2018-01-27 13:00:00 15.1 11 Sur 19 Sur 0 -- -- 34
2018-01-27 12:00:00 14.5 5 Este 15 Sudeste 0 -- -- 32
2018-01-27 11:00:00 14 8 Este 20 Noroeste 0 -- -- 35
2018-01-27 10:00:00 12.1 8 Noroeste 21 Noroeste 0 -- -- 34
2018-01-27 09:00:00 10 9 Oeste 22 Noroeste 0 -- -- 38
2018-01-27 08:00:00 9 10 Oeste 20 Noroeste 0 -- -- 44
2018-01-27 07:00:00 9.6 6 Oeste 21 Oeste 0 -- -- 43
2018-01-27 06:00:00 10 5 Oeste 18 Noroeste 0 -- -- 43
2018-01-27 05:00:00 9.9 5 Oeste 15 Oeste 0 -- -- 43
2018-01-27 04:00:00 9.7 8 Oeste 14 Oeste 0 -- -- 42
2018-01-27 03:00:00 9.8 5 Oeste 14 Sudoeste 0 -- -- 44
2018-01-27 02:00:00 10.5 12 Sudoeste 18 Sudoeste 0 -- -- 47
2018-01-27 01:00:00 9.8 12 Oeste 16 Sudoeste 0 -- -- 51
2018-01-27 00:00:00 10 9 Sudoeste 17 Noroeste 0 -- -- 46
2018-01-26 23:00:00 10.5 6 Oeste 26 Oeste 0 -- -- 43
2018-01-26 22:00:00 10 9 Oeste 17 Oeste 0 -- -- 42
2018-01-26 21:00:00 10.6 10 Oeste 15 Oeste 0 -- -- 41
2018-01-26 20:00:00 10.8 7 Oeste 36 Noroeste 0 -- -- 42
2018-01-26 19:00:00 11.6 17 Oeste 29 Noroeste 0 -- -- 42
2018-01-26 18:00:00 11.3 0 Calma 6 Oeste 0 -- -- 45
2018-01-26 17:00:00 12.6 4 Sudoeste 19 Sudeste 0 -- -- 40
2018-01-26 16:00:00 14.9 9 Sudeste 20 Sudeste 0 -- -- 35
2018-01-26 15:00:00 15.5 6 Este 24 Este 0 -- -- 33
2018-01-26 14:00:00 15.1 13 Este 23 Este 0 -- -- 35
2018-01-26 13:00:00 14.8 5 Este 10 Sudeste 0 -- -- 34
2018-01-26 12:00:00 13.1 6 Oeste 39 Oeste 0 -- -- 37
2018-01-26 11:00:00 11.8 22 Oeste 51 Oeste 0 -- -- 46
2018-01-26 10:00:00 10.4 32 Oeste 58 Oeste 0 -- -- 49
2018-01-26 09:00:00 8.9 35 Oeste 54 Oeste 0 -- -- 58
2018-01-26 08:00:00 9 34 Oeste 55 Oeste 0 -- -- 57
2018-01-26 07:00:00 9.8 33 Oeste 60 Oeste 0 -- -- 51
2018-01-26 06:00:00 9.4 39 Oeste 72 Oeste 0 -- -- 55
2018-01-26 05:00:00 10.5 46 Oeste 78 Oeste 0 -- -- 43
2018-01-26 04:00:00 10.7 42 Oeste 73 Oeste 0 -- -- 53
2018-01-26 03:00:00 10.4 45 Oeste 66 Oeste 0 -- -- 59
2018-01-26 02:00:00 11 32 Oeste 55 Oeste 0 -- -- 61
2018-01-26 01:00:00 11.8 32 Oeste 58 Noroeste 0 -- -- 60
2018-01-26 00:00:00 12.7 37 Oeste 58 Oeste 0 -- -- 64
2018-01-25 23:00:00 11.9 24 Oeste 54 Oeste 1.2 -- -- 91
2018-01-25 22:00:00 11.9 35 Oeste 60 Oeste 0.2 -- -- 91
2018-01-25 21:00:00 12.9 31 Oeste 50 Oeste 0 -- -- 87
2018-01-25 20:00:00 12.9 28 Oeste 56 Oeste 0 -- -- 83
2018-01-25 19:00:00 12.9 31 Oeste 58 Oeste 0 -- -- 87
2018-01-25 18:00:00 13.3 35 Oeste 54 Oeste 0 -- -- 88
2018-01-25 17:00:00 13.4 28 Oeste 48 Sudoeste 0 -- -- 84
2018-01-25 16:00:00 14.1 15 Noroeste 44 Oeste 0 -- -- 77
2018-01-25 15:00:00 13.9 24 Oeste 45 Oeste 0 -- -- 77
2018-01-25 14:00:00 14.2 26 Oeste 42 Oeste 0 -- -- 75
2018-01-25 13:00:00 14.6 17 Oeste 37 Oeste 0 -- -- 72
2018-01-25 12:00:00 15 4 Nordeste 11 Este 0 -- -- 71
2018-01-25 11:00:00 13.4 3 Este 7 Este 0 -- -- 78
2018-01-25 10:00:00 11.4 0 Calma 4 Sur 0 -- -- 89
2018-01-25 09:00:00 9.6 2 Sudeste 7 Sudoeste 0 -- -- 94
2018-01-25 08:00:00 9.3 5 Sur 8 Sur 0 -- -- 95
2018-01-25 07:00:00 9.4 3 Sudoeste 10 Oeste 0 -- -- 93
2018-01-25 06:00:00 9.8 5 Oeste 10 Oeste 0 -- -- 94
2018-01-25 05:00:00 10.1 7 Oeste 13 Oeste 0 -- -- 94
2018-01-25 04:00:00 10.1 7 Oeste 12 Sudoeste 0 -- -- 95
2018-01-25 03:00:00 9.6 0 Calma 8 Noroeste 0 -- -- 95
2018-01-25 02:00:00 10 4 Oeste 9 Sudoeste 0 -- -- 94
2018-01-25 01:00:00 11.1 7 Oeste 10 Sudoeste 0 -- -- 94
2018-01-25 00:00:00 11.3 6 Oeste 8 Oeste 0 -- -- 95
2018-01-24 23:00:00 11.4 0 Calma 7 Sudoeste 0 -- -- 95
2018-01-24 22:00:00 11.4 4 Oeste 6 Noroeste 0 -- -- 95
2018-01-24 21:00:00 11.5 2 Sudoeste 6 Oeste 0 -- -- 96
2018-01-24 20:00:00 11.2 3 Sur 6 Sudoeste 0 -- -- 94
2018-01-24 19:00:00 11.5 3 Oeste 7 Noroeste 0 -- -- 94
2018-01-24 18:00:00 12 3 Oeste 5 Sudeste 0 -- -- 89
2018-01-24 17:00:00 13.2 3 Sudeste 9 Este 0 -- -- 84
2018-01-24 16:00:00 13.8 6 Sudeste 14 Sudeste 0 -- -- 83
2018-01-24 15:00:00 14.3 9 Este 14 Sudeste 0 -- -- 83
2018-01-24 14:00:00 15 9 Sudeste 15 Este 0 -- -- 80
2018-01-24 13:00:00 15.7 8 Sudeste 13 Sudeste 0 -- -- 75
2018-01-24 12:00:00 15.6 5 Este 10 Nordeste 0 -- -- 74
2018-01-24 11:00:00 14.1 0 Calma 6 Norte 0 -- -- 82
2018-01-24 10:00:00 12 0 Calma 5 Sudeste 0 -- -- 92
2018-01-24 09:00:00 10.9 0 Calma 5 Sudeste 0 -- -- 94
2018-01-24 08:00:00 10.4 0 Calma 8 Sudeste 0 -- -- 91
2018-01-24 07:00:00 10.6 3 Sudeste 5 Sudeste 0 -- -- 92
2018-01-24 06:00:00 10.8 0 Calma 5 Sudeste 0 -- -- 90
2018-01-24 05:00:00 11 4 Sur 9 Sur 0 -- -- 89
2018-01-24 04:00:00 11.1 5 Sur 8 Sudeste 0 -- -- 83
2018-01-24 03:00:00 11.4 3 Sur 8 Sudeste 0 -- -- 81
2018-01-24 02:00:00 11.5 3 Sudoeste 8 Sur 0 -- -- 73
2018-01-24 01:00:00 12.1 4 Sudeste 10 Oeste 0 -- -- 72
2018-01-24 00:00:00 13.2 8 Oeste 11 Oeste 0 -- -- 65
2018-01-23 23:00:00 12.7 4 Sudeste 9 Sudeste 0 -- -- 69
2018-01-23 22:00:00 13.2 0 Calma 6 Sudeste 0 -- -- 65
2018-01-23 21:00:00 13.6 0 Calma 5 Nordeste 0 -- -- 63
2018-01-23 20:00:00 14.3 3 Este 12 Este 0 -- -- 60
2018-01-23 19:00:00 14.4 3 Sudeste 9 Sudeste 0 -- -- 61
2018-01-23 18:00:00 15 4 Sur 11 Este 0 -- -- 57
2018-01-23 17:00:00 16.8 4 Sudeste 10 Este 0 -- -- 51
2018-01-23 16:00:00 19.9 3 Este 10 Este 0 -- -- 41
2018-01-23 15:00:00 20.2 3 Este 8 Sudeste 0 -- -- 43
2018-01-23 14:00:00 18.4 0 Calma 9 Este 0 -- -- 62
2018-01-23 13:00:00 16.8 4 Sudeste 9 Este 0 -- -- 74
2018-01-23 12:00:00 17.1 3 Este 6 Este 0 -- -- 74
2018-01-23 11:00:00 18.2 3 Este 5 Este 0 -- -- 70
2018-01-23 10:00:00 16.7 0 Calma 5 Nordeste 0 -- -- 60
2018-01-23 09:00:00 13.3 0 Calma 4 Sur 0 -- -- 61
2018-01-23 08:00:00 12.8 3 Sudeste 6 Oeste 0 -- -- 61
2018-01-23 07:00:00 12.2 0 Calma 3 Noroeste 0 -- -- 63
2018-01-23 06:00:00 12.2 0 Calma 6 Sudeste 0 -- -- 66
2018-01-23 05:00:00 13.5 6 Sudeste 9 Sudeste 0 -- -- 60
2018-01-23 04:00:00 14.4 3 Sur 5 Sur 0 -- -- 58
2018-01-23 03:00:00 14.7 0 Calma 7 Oeste 0 -- -- 56
2018-01-23 02:00:00 14.3 0 Calma 5 Sudoeste 0 -- -- 58
2018-01-23 01:00:00 13.5 0 Calma 5 Noroeste 0 -- -- 61
2018-01-23 00:00:00 13.7 2 Oeste 5 Sur 0 -- -- 63
2018-01-22 23:00:00 15.8 0 Calma 6 Oeste 0 -- -- 54
2018-01-22 22:00:00 15 2 Sudoeste 5 Sudoeste 0 -- -- 56
2018-01-22 21:00:00 14.9 0 Calma 6 Oeste 0 -- -- 60
2018-01-22 20:00:00 14.7 0 Calma 10 Sur 0 -- -- 63
2018-01-22 19:00:00 15.7 2 Oeste 8 Sudeste 0 -- -- 50
2018-01-22 18:00:00 17.2 4 Oeste 8 Sudoeste 0 -- -- 43
2018-01-22 17:00:00 18.4 0 Calma 12 Sudoeste 0 -- -- 51
2018-01-22 16:00:00 21.9 0 Calma 6 Sudeste 0 -- -- 53
2018-01-22 15:00:00 20.1 0 Calma 7 Este 0 -- -- 53
2018-01-22 14:00:00 18.9 5 Este 11 Este 0 -- -- 58
2018-01-22 13:00:00 19.4 3 Este 10 Este 0 -- -- 54
2018-01-22 12:00:00 19 3 Nordeste 8 Este 0 -- -- 58
2018-01-22 11:00:00 21.2 6 Sudeste 10 Este 0 -- -- 37
2018-01-22 10:00:00 19.2 0 Calma -- -- 0 -- -- 43
2018-01-22 09:00:00 16.5 0 Calma 8 Sur 0 -- -- 43
2018-01-22 08:00:00 15.8 2 Sur 14 Oeste 0 -- -- 43
2018-01-22 07:00:00 16.3 5 Oeste 11 Oeste 0 -- -- 41
2018-01-22 06:00:00 16.2 5 Oeste 11 Oeste 0 -- -- 42
2018-01-22 05:00:00 14.7 2 Sur 5 Sudeste 0 -- -- 48
2018-01-22 04:00:00 16 4 Oeste 11 Oeste 0 -- -- 44
2018-01-22 03:00:00 14.3 6 Oeste 13 Sudeste 0 -- -- 50
2018-01-22 02:00:00 15.8 7 Sudoeste 19 Oeste 0 -- -- 47
2018-01-22 01:00:00 18 9 Oeste 17 Oeste 0 -- -- 40
2018-01-22 00:00:00 18.6 13 Oeste 20 Oeste 0 -- -- 39